Time;durP1;ratioP1;P1;durP2;ratioP2;P2;SDS_P1;SDS_P2;PMS_P1;PMS_P2;Temp;Humidity;BMP_temperature;BMP_pressure;BME280_temperature;BME280_humidity;BME280_pressure;Samples;Min_cycle;Max_cycle;Signal;HPM_P1;HPM_P2
2024/03/23 00:00:11;;;;;;;27.08;10.05;;;;;;;6.52;100.00;99803.78;10193159;29;20036;-77
2024/03/23 00:05:16;;;;;;;36.40;9.52;;;;;;;6.24;100.00;99802.28;10189378;29;20135;-78
2024/03/23 00:10:18;;;;;;;21.73;7.50;;;;;;;6.16;100.00;99794.84;10201124;29;20051;-77
2024/03/23 00:15:21;;;;;;;29.60;6.40;;;;;;;6.00;100.00;99791.56;10204492;29;20073;-77
2024/03/23 00:20:23;;;;;;;23.10;6.40;;;;;;;5.88;100.00;99771.13;10185451;29;20039;-78
2024/03/23 00:25:25;;;;;;;29.15;7.45;;;;;;;5.84;100.00;99759.84;10202569;29;20295;-77
2024/03/23 00:30:27;;;;;;;38.47;7.22;;;;;;;5.90;100.00;99750.53;10165006;29;20079;-77
2024/03/23 00:35:28;;;;;;;24.17;7.05;;;;;;;5.97;100.00;99761.59;10184400;29;20048;-77
2024/03/23 00:40:30;;;;;;;22.83;6.60;;;;;;;5.85;100.00;99760.69;10186797;29;20054;-77
2024/03/23 00:45:32;;;;;;;32.78;8.07;;;;;;;5.91;100.00;99757.56;10204972;29;20036;-77
2024/03/23 00:50:35;;;;;;;33.88;8.88;;;;;;;5.72;100.00;99758.03;10193552;29;20043;-77
2024/03/23 00:55:36;;;;;;;25.58;7.63;;;;;;;5.90;100.00;99743.41;10194531;29;20040;-78
2024/03/23 01:00:37;;;;;;;28.05;6.45;;;;;;;5.89;100.00;99740.81;10194728;29;20055;-78
2024/03/23 01:05:37;;;;;;;28.88;6.72;;;;;;;5.90;100.00;99727.41;10180825;29;20044;-78
2024/03/23 01:10:38;;;;;;;27.70;6.25;;;;;;;5.95;100.00;99719.94;10193978;29;20039;-77
2024/03/23 01:15:39;;;;;;;31.67;6.75;;;;;;;5.93;100.00;99713.84;10218050;29;20090;-78
2024/03/23 01:20:40;;;;;;;29.10;6.25;;;;;;;5.97;100.00;99708.28;10205062;29;20048;-77
2024/03/23 01:25:41;;;;;;;30.05;6.43;;;;;;;5.99;100.00;99707.22;10196153;29;20048;-78
2024/03/23 01:30:42;;;;;;;22.45;6.68;;;;;;;5.85;100.00;99704.72;10195108;29;20042;-78
2024/03/23 01:35:43;;;;;;;27.60;6.90;;;;;;;5.75;100.00;99682.34;10201594;29;20550;-77
2024/03/23 01:40:43;;;;;;;22.50;7.10;;;;;;;5.85;100.00;99686.06;10211205;29;20050;-78
2024/03/23 01:45:44;;;;;;;25.88;7.10;;;;;;;5.84;100.00;99681.66;10207402;29;20048;-78
2024/03/23 01:50:45;;;;;;;22.13;7.45;;;;;;;5.99;100.00;99679.72;10205659;29;20047;-79
2024/03/23 01:55:47;;;;;;;27.77;7.70;;;;;;;5.94;100.00;99659.56;10196098;29;20043;-78
2024/03/23 02:00:47;;;;;;;28.20;8.40;;;;;;;5.37;100.00;99667.28;10194343;29;20056;-77
2024/03/23 02:05:48;;;;;;;24.75;8.48;;;;;;;5.88;100.00;99665.34;10226611;29;20032;-76
2024/03/23 02:10:50;;;;;;;29.42;7.97;;;;;;;5.87;100.00;99649.44;10222864;29;20621;-77
2024/03/23 02:15:51;;;;;;;27.73;7.83;;;;;;;5.93;100.00;99638.38;10206638;29;20047;-78
2024/03/23 02:20:51;;;;;;;29.98;8.18;;;;;;;5.62;100.00;99645.06;10197874;29;20082;-78
2024/03/23 02:25:55;;;;;;;28.88;7.97;;;;;;;5.73;100.00;99640.66;10201180;29;20059;-77
2024/03/23 02:30:56;;;;;;;23.38;8.18;;;;;;;5.67;100.00;99634.91;10187960;29;20048;-78
2024/03/23 02:35:57;;;;;;;20.05;7.60;;;;;;;5.82;100.00;99636.47;10198302;29;20091;-77
2024/03/23 02:41:03;;;;;;;24.73;5.93;;;;;;;5.65;100.00;99626.19;10201563;29;20043;-79
2024/03/23 02:46:04;;;;;;;23.70;6.93;;;;;;;5.58;100.00;99628.44;10195463;29;20048;-78
2024/03/23 02:51:04;;;;;;;32.80;8.20;;;;;;;5.67;100.00;99621.59;10162841;29;20063;-78
2024/03/23 02:56:06;;;;;;;26.65;7.13;;;;;;;5.66;100.00;99615.44;10201853;29;20059;-78
2024/03/23 03:01:07;;;;;;;26.83;6.90;;;;;;;5.70;100.00;99606.25;10203396;29;20510;-77
2024/03/23 03:06:08;;;;;;;30.50;7.25;;;;;;;5.69;100.00;99603.69;10199331;29;20394;-78
2024/03/23 03:11:08;;;;;;;28.30;7.18;;;;;;;5.63;100.00;99596.16;10180565;29;20734;-79
2024/03/23 03:16:12;;;;;;;19.15;6.32;;;;;;;5.37;100.00;99596.22;10195651;29;20048;-78
2024/03/23 03:21:13;;;;;;;18.58;5.75;;;;;;;5.24;100.00;99598.91;10219863;29;20803;-78
2024/03/23 03:26:14;;;;;;;22.23;6.40;;;;;;;5.37;100.00;99600.69;10204019;29;20099;-78
2024/03/23 03:31:16;;;;;;;28.98;8.80;;;;;;;5.35;100.00;99603.47;10182992;29;20122;-78
2024/03/23 03:36:17;;;;;;;19.25;5.25;;;;;;;5.39;100.00;99591.63;10198818;29;20055;-78
2024/03/23 03:41:18;;;;;;;22.27;6.10;;;;;;;5.24;100.00;99585.59;10194090;29;20115;-78
2024/03/23 03:46:19;;;;;;;20.88;5.75;;;;;;;5.10;100.00;99576.88;10194023;29;20456;-78
2024/03/23 03:51:20;;;;;;;17.23;5.82;;;;;;;5.17;100.00;99570.16;10192997;29;20044;-77
2024/03/23 03:56:22;;;;;;;21.10;5.93;;;;;;;5.06;100.00;99576.25;10201699;29;20059;-78
2024/03/23 04:01:23;;;;;;;15.83;5.17;;;;;;;5.00;100.00;99574.03;10199791;29;20514;-78
2024/03/23 04:06:23;;;;;;;15.13;4.43;;;;;;;5.18;100.00;99575.38;10192116;29;20044;-77
2024/03/23 04:11:24;;;;;;;15.52;4.93;;;;;;;4.59;100.00;99573.28;10195276;29;20122;-78
2024/03/23 04:16:27;;;;;;;17.25;4.38;;;;;;;4.57;100.00;99577.00;10157407;29;20091;-77
2024/03/23 04:21:28;;;;;;;17.17;4.32;;;;;;;4.54;100.00;99578.06;10191689;29;20098;-77
2024/03/23 04:26:28;;;;;;;14.80;3.63;;;;;;;4.36;100.00;99580.19;10194763;29;20047;-77
2024/03/23 04:31:29;;;;;;;10.00;3.30;;;;;;;4.22;100.00;99574.06;10171363;29;20116;-77
2024/03/23 04:36:30;;;;;;;11.93;4.32;;;;;;;4.72;100.00;99567.97;10191067;29;20099;-78
2024/03/23 04:41:31;;;;;;;11.95;3.58;;;;;;;4.53;100.00;99565.72;10185166;29;20047;-77
2024/03/23 04:46:31;;;;;;;16.80;4.93;;;;;;;4.35;100.00;99565.16;10188139;29;20036;-77
2024/03/23 04:51:38;;;;;;;17.38;5.65;;;;;;;4.18;100.00;99576.09;10196275;29;20044;-78
2024/03/23 04:56:39;;;;;;;17.27;5.13;;;;;;;4.07;100.00;99574.16;10192996;29;20384;-76
2024/03/23 05:01:41;;;;;;;21.05;5.07;;;;;;;4.51;100.00;99553.47;10204562;29;20044;-76
2024/03/23 05:06:43;;;;;;;20.42;5.80;;;;;;;4.64;100.00;99556.16;10196140;29;20036;-77
2024/03/23 05:11:44;;;;;;;14.65;4.80;;;;;;;4.29;100.00;99554.09;10193637;29;20047;-77
2024/03/23 05:16:45;;;;;;;24.88;6.13;;;;;;;4.51;100.00;99538.38;10194140;29;20071;-78
2024/03/23 05:21:45;;;;;;;20.15;5.65;;;;;;;4.77;100.00;99531.25;10183596;29;20455;-77
2024/03/23 05:26:46;;;;;;;23.60;9.07;;;;;;;4.91;100.00;99538.25;10213966;29;20042;-77
2024/03/23 05:31:49;;;;;;;20.15;5.85;;;;;;;4.91;100.00;99538.25;10209708;29;20135;-78
2024/03/23 05:36:51;;;;;;;17.85;6.43;;;;;;;4.79;100.00;99539.94;10214001;29;20036;-78
2024/03/23 05:41:51;;;;;;;20.83;5.15;;;;;;;4.77;100.00;99543.66;10207484;29;20044;-79
2024/03/23 05:46:52;;;;;;;16.25;6.60;;;;;;;4.79;100.00;99541.75;10210298;29;20070;-78
2024/03/23 05:51:55;;;;;;;21.52;6.68;;;;;;;4.65;100.00;99549.88;10204935;29;20449;-78
2024/03/23 05:56:56;;;;;;;21.02;6.13;;;;;;;4.58;100.00;99539.66;10207991;29;20071;-78
2024/03/23 06:01:57;;;;;;;31.33;8.05;;;;;;;4.46;100.00;99543.16;10209070;29;20076;-78
2024/03/23 06:06:58;;;;;;;27.53;8.17;;;;;;;4.60;100.00;99547.50;10224773;29;20060;-77
2024/03/23 06:11:59;;;;;;;30.42;9.15;;;;;;;4.26;100.00;99551.66;10221007;29;20058;-77
2024/03/23 06:17:00;;;;;;;28.80;9.83;;;;;;;5.06;100.00;99546.97;10199643;29;20051;-76
2024/03/23 06:22:01;;;;;;;33.63;9.35;;;;;;;4.59;100.00;99549.34;10198776;29;20419;-77
2024/03/23 06:27:02;;;;;;;30.63;9.90;;;;;;;4.66;100.00;99544.41;10216077;29;20036;-77
2024/03/23 06:32:03;;;;;;;31.58;9.55;;;;;;;4.87;100.00;99547.41;10191471;29;20058;-76
2024/03/23 06:37:04;;;;;;;32.65;10.10;;;;;;;4.97;100.00;99552.94;10195817;29;20051;-78
2024/03/23 06:42:05;;;;;;;34.38;11.20;;;;;;;5.44;100.00;99549.53;10196800;29;20119;-77
2024/03/23 06:47:06;;;;;;;35.40;11.15;;;;;;;5.36;100.00;99541.25;10192664;29;20047;-78
2024/03/23 06:52:07;;;;;;;34.58;10.65;;;;;;;5.06;100.00;99555.81;10200846;29;20052;-77
2024/03/23 06:57:07;;;;;;;32.97;11.00;;;;;;;5.15;100.00;99556.97;10188734;29;20566;-77
2024/03/23 07:02:08;;;;;;;32.72;11.13;;;;;;;5.54;100.00;99543.53;10187205;29;20052;-77
2024/03/23 07:07:09;;;;;;;32.63;11.68;;;;;;;5.39;100.00;99542.84;10178064;29;20052;-77
2024/03/23 07:12:09;;;;;;;41.22;13.18;;;;;;;5.31;100.00;99559.38;10171250;29;20040;-77
2024/03/23 07:17:11;;;;;;;36.45;12.93;;;;;;;5.28;100.00;99557.78;10194991;29;20040;-77
2024/03/23 07:22:11;;;;;;;33.30;11.50;;;;;;;5.67;100.00;99563.81;10192428;29;20079;-77
2024/03/23 07:27:12;;;;;;;39.22;12.02;;;;;;;5.15;100.00;99556.97;10198599;29;20075;-76
2024/03/23 07:32:13;;;;;;;33.85;12.93;;;;;;;5.49;100.00;99559.88;10194708;29;20044;-77
2024/03/23 07:37:14;;;;;;;31.70;11.68;;;;;;;5.63;100.00;99561.53;10206218;29;20123;-77
2024/03/23 07:42:15;;;;;;;38.65;10.90;;;;;;;6.25;100.00;99542.59;10199017;29;20081;-77
2024/03/23 07:47:15;;;;;;;33.55;12.35;;;;;;;6.48;100.00;99564.88;10150140;28;21178;-77
2024/03/23 07:52:16;;;;;;;25.10;8.93;;;;;;;5.70;100.00;99560.09;10134298;28;20178;-77
2024/03/23 07:57:17;;;;;;;29.00;10.20;;;;;;;6.12;100.00;99555.19;10153223;28;20118;-76
2024/03/23 08:02:18;;;;;;;32.15;11.50;;;;;;;6.21;100.00;99559.81;10138779;28;20052;-76
2024/03/23 08:07:19;;;;;;;35.53;10.55;;;;;;;6.38;100.00;99556.72;10144972;28;20052;-77
2024/03/23 08:12:21;;;;;;;26.13;9.90;;;;;;;6.03;99.51;99572.72;10153428;28;20052;-76
2024/03/23 08:17:22;;;;;;;28.65;10.30;;;;;;;6.40;98.63;99557.44;10171005;28;21099;-77
2024/03/23 08:22:23;;;;;;;27.75;11.07;;;;;;;6.44;97.42;99560.72;10171327;28;20103;-79
2024/03/23 08:27:24;;;;;;;24.60;8.80;;;;;;;6.95;97.16;99565.69;10178763;28;20071;-79
2024/03/23 08:32:25;;;;;;;26.10;7.72;;;;;;;6.29;91.37;99564.56;10177929;28;20182;-80
2024/03/23 08:37:27;;;;;;;31.75;8.75;;;;;;;6.60;88.64;99565.72;10160465;28;20443;-78
2024/03/23 08:42:27;;;;;;;27.15;8.82;;;;;;;6.16;91.81;99551.31;10179027;28;20063;-79
2024/03/23 08:47:28;;;;;;;23.30;8.50;;;;;;;6.48;87.93;99546.19;10148152;28;20245;-78
2024/03/23 08:52:29;;;;;;;17.63;8.40;;;;;;;6.81;86.55;99558.72;10158726;28;20146;-79
2024/03/23 08:57:30;;;;;;;21.75;7.15;;;;;;;7.30;80.83;99551.34;10158846;28;20285;-79
2024/03/23 09:02:31;;;;;;;25.50;8.27;;;;;;;7.51;82.22;99551.41;10160181;28;21180;-79
2024/03/23 09:07:31;;;;;;;15.52;6.57;;;;;;;7.07;82.98;99553.16;10171779;28;20134;-79
2024/03/23 09:12:32;;;;;;;15.90;5.53;;;;;;;7.10;80.00;99560.94;10172646;28;20067;-79
2024/03/23 09:17:33;;;;;;;24.52;6.82;;;;;;;7.15;78.98;99549.88;10172710;28;20052;-79
2024/03/23 09:22:34;;;;;;;27.10;6.70;;;;;;;8.43;77.96;99554.44;10164114;28;20051;-79
2024/03/23 09:27:35;;;;;;;16.58;5.47;;;;;;;9.57;71.74;99552.56;10170882;28;20081;-78
2024/03/23 09:32:35;;;;;;;13.23;4.70;;;;;;;9.77;67.10;99540.88;10174068;28;20055;-79
2024/03/23 09:37:37;;;;;;;21.25;5.47;;;;;;;10.06;66.33;99532.03;10186686;28;20051;-78
2024/03/23 09:42:38;;;;;;;12.13;4.95;;;;;;;10.11;64.86;99541.34;10184624;28;20699;-78
2024/03/23 09:47:39;;;;;;;11.70;3.42;;;;;;;8.91;62.92;99540.50;10186427;28;21118;-78
2024/03/23 09:52:41;;;;;;;13.88;3.70;;;;;;;8.90;64.06;99556.72;10147333;28;21275;-78
2024/03/23 09:57:42;;;;;;;13.30;3.55;;;;;;;9.36;63.03;99545.47;10157171;28;20058;-79
2024/03/23 10:02:43;;;;;;;10.50;3.00;;;;;;;7.79;70.67;99543.78;10182292;28;20055;-79
2024/03/23 10:07:44;;;;;;;10.52;3.25;;;;;;;6.62;73.25;99563.78;10195976;28;20051;-79
2024/03/23 10:12:55;;;;;;;10.95;3.63;;;;;;;6.75;76.98;99540.53;10190146;28;20165;-77
2024/03/23 10:17:55;;;;;;;13.82;3.40;;;;;;;7.13;74.16;99525.13;10160013;28;21161;-80
2024/03/23 10:22:56;;;;;;;15.98;3.25;;;;;;;7.35;72.11;99532.25;10178306;28;20046;-78
2024/03/23 10:28:01;;;;;;;11.57;3.00;;;;;;;8.19;65.87;99519.91;10221163;28;20047;-79
2024/03/23 10:33:11;;;;;;;6.50;2.20;;;;;;;8.42;62.55;99520.66;10197988;28;20051;-79
2024/03/23 10:38:12;;;;;;;12.60;2.75;;;;;;;9.39;57.39;99521.06;10210315;28;20048;-79
2024/03/23 10:43:14;;;;;;;5.00;2.00;;;;;;;9.99;54.75;99504.94;10176134;28;20059;-79
2024/03/23 10:48:15;;;;;;;7.30;2.33;;;;;;;9.49;56.74;99521.94;10172318;28;20107;-78
2024/03/23 10:53:17;;;;;;;5.82;2.53;;;;;;;9.06;56.15;99514.22;10159608;28;20055;-77
2024/03/23 10:58:30;;;;;;;5.60;2.55;;;;;;;10.38;53.04;99507.56;10161774;28;20110;-81
2024/03/23 11:03:31;;;;;;;9.57;2.60;;;;;;;9.94;54.75;99470.47;10178944;28;20060;-80
2024/03/23 11:08:33;;;;;;;11.98;2.95;;;;;;;9.94;55.74;99494.59;10158533;28;20051;-79
2024/03/23 11:13:34;;;;;;;11.95;4.13;;;;;;;10.27;57.02;99496.97;10170856;28;20079;-80
2024/03/23 11:18:35;;;;;;;9.25;3.70;;;;;;;10.19;54.67;99486.97;10172589;28;20052;-79
2024/03/23 11:23:35;;;;;;;6.93;3.22;;;;;;;11.50;50.84;99504.84;10168980;28;20170;-80
2024/03/23 11:28:36;;;;;;;10.52;3.35;;;;;;;8.06;77.78;99520.09;10172706;28;20511;-78
2024/03/23 11:33:37;;;;;;;9.52;2.85;;;;;;;5.32;99.20;99549.56;10210358;28;20078;-79
2024/03/23 11:38:38;;;;;;;5.22;2.08;;;;;;;4.78;100.00;99545.41;10166800;28;20470;-80
2024/03/23 11:43:39;;;;;;;4.90;1.50;;;;;;;4.26;94.56;99533.91;10168178;28;20087;-80
2024/03/23 11:48:40;;;;;;;6.05;2.00;;;;;;;5.13;91.72;99523.41;10170975;28;20059;-78
2024/03/23 11:53:40;;;;;;;6.05;2.40;;;;;;;6.76;81.87;99522.69;10167692;28;20044;-79
2024/03/23 11:58:41;;;;;;;8.00;2.90;;;;;;;7.84;77.76;99512.19;10153705;28;20693;-79
2024/03/23 12:03:44;;;;;;;7.72;3.03;;;;;;;6.83;81.02;99514.06;10160150;28;20865;-80
2024/03/23 12:08:44;;;;;;;11.45;3.45;;;;;;;8.80;72.81;99505.78;10170918;28;20079;-80
2024/03/23 12:13:46;;;;;;;9.88;3.10;;;;;;;9.01;66.84;99492.34;10150540;28;20107;-79
2024/03/23 12:18:49;;;;;;;6.67;3.20;;;;;;;7.52;72.18;99494.34;10163181;28;20075;-80
2024/03/23 12:23:50;;;;;;;5.57;2.75;;;;;;;8.11;67.50;99480.44;10164340;28;20055;-79
2024/03/23 12:28:50;;;;;;;12.95;5.78;;;;;;;8.23;74.17;99499.09;10167767;28;20060;-79
2024/03/23 12:33:51;;;;;;;6.25;2.67;;;;;;;7.85;69.19;99484.47;10158776;28;20044;-78
2024/03/23 12:38:52;;;;;;;10.88;3.10;;;;;;;9.02;77.44;99478.81;10194117;28;20409;-79
2024/03/23 12:43:53;;;;;;;4.20;2.55;;;;;;;8.67;77.94;99489.97;10182756;28;20182;-78
2024/03/23 12:48:54;;;;;;;5.63;2.33;;;;;;;8.41;76.53;99513.56;10151700;28;20123;-80
2024/03/23 12:53:54;;;;;;;3.53;1.98;;;;;;;7.95;77.19;99514.81;10173213;28;20075;-80
2024/03/23 12:58:57;;;;;;;8.60;2.42;;;;;;;9.67;69.97;99506.00;10175534;28;20423;-78
2024/03/23 13:03:59;;;;;;;4.57;1.70;;;;;;;11.06;54.56;99493.91;10169438;28;20244;-79
2024/03/23 13:09:03;;;;;;;0.93;0.60;;;;;;;10.46;49.80;99493.41;10164545;28;20115;-78
2024/03/23 13:14:04;;;;;;;2.30;1.02;;;;;;;11.05;50.54;99501.13;10168809;28;20094;-78
2024/03/23 13:19:04;;;;;;;2.55;1.52;;;;;;;12.07;47.91;99531.47;10164139;28;20131;-79
2024/03/23 13:24:05;;;;;;;2.42;0.50;;;;;;;9.45;60.12;99562.56;10169875;28;20172;-79
2024/03/23 13:29:06;;;;;;;0.32;0.32;;;;;;;7.31;71.21;99561.03;10170889;28;20067;-78
2024/03/23 13:34:07;;;;;;;1.65;0.57;;;;;;;6.30;75.55;99559.09;10202331;28;20070;-78
2024/03/23 13:39:11;;;;;;;1.77;0.90;;;;;;;6.23;78.04;99538.38;10183755;28;20139;-79
2024/03/23 13:44:13;;;;;;;5.90;1.77;;;;;;;5.11;84.61;99557.31;10173339;28;20075;-78
2024/03/23 13:49:27;;;;;;;4.20;2.13;;;;;;;5.25;90.60;99566.00;10173302;28;20766;-78
2024/03/23 13:54:27;;;;;;;3.10;2.00;;;;;;;4.79;95.31;99561.22;10170204;28;20103;-78
2024/03/23 13:59:29;;;;;;;5.70;2.42;;;;;;;4.87;94.50;99552.72;10194957;28;20140;-80
2024/03/23 14:04:30;;;;;;;5.22;1.98;;;;;;;6.20;97.30;99541.25;10169728;28;20051;-78
2024/03/23 14:09:32;;;;;;;3.30;1.50;;;;;;;10.01;69.69;99524.41;10177596;28;20059;-80
2024/03/23 14:14:33;;;;;;;;;;;;;;;11.04;70.23;99526.28;10162584;28;20068;-78
2024/03/23 14:19:34;;;;;;;4.68;1.77;;;;;;;8.29;67.35;99523.50;10158262;28;20567;-79
2024/03/23 14:24:34;;;;;;;4.45;1.80;;;;;;;10.51;64.43;99510.78;10163330;28;20115;-78
2024/03/23 14:29:35;;;;;;;7.45;1.60;;;;;;;9.44;62.23;99524.19;10181698;28;20063;-79
2024/03/23 14:34:36;;;;;;;5.15;1.58;;;;;;;6.32;79.38;99559.00;10157147;28;20047;-79
2024/03/23 14:39:41;;;;;;;3.92;1.48;;;;;;;4.47;100.00;99559.97;10172019;28;20426;-78
2024/03/23 14:44:42;;;;;;;3.40;0.80;;;;;;;3.75;92.38;99555.03;10183289;28;20060;-78
2024/03/23 14:49:46;;;;;;;3.35;1.20;;;;;;;4.29;85.18;99536.34;10179869;28;20052;-79
2024/03/23 14:54:47;;;;;;;7.40;1.63;;;;;;;5.88;81.91;99534.75;10168394;28;20054;-79
2024/03/23 14:59:48;;;;;;;3.90;1.60;;;;;;;5.89;76.78;99540.91;10170842;28;20044;-78
2024/03/23 15:04:49;;;;;;;1.73;1.02;;;;;;;5.20;79.34;99557.47;10163502;28;20063;-79
2024/03/23 15:09:49;;;;;;;7.28;1.95;;;;;;;4.97;82.15;99560.91;10170614;28;20799;-79
2024/03/23 15:14:50;;;;;;;7.78;2.10;;;;;;;4.87;85.92;99558.03;10154961;28;20055;-79
2024/03/23 15:19:52;;;;;;;3.55;1.40;;;;;;;4.97;88.02;99553.78;10164533;28;20122;-79
2024/03/23 15:24:53;;;;;;;3.45;1.52;;;;;;;4.40;88.50;99575.50;10170193;28;20067;-80
2024/03/23 15:29:56;;;;;;;2.65;1.23;;;;;;;3.95;100.00;99572.34;10174960;28;20048;-80
2024/03/23 15:34:57;;;;;;;2.15;1.05;;;;;;;5.34;100.00;99534.34;10192852;28;20052;-79
2024/03/23 15:39:58;;;;;;;3.78;1.15;;;;;;;5.79;93.69;99519.44;10177761;28;20087;-80
2024/03/23 15:44:59;;;;;;;1.52;0.93;;;;;;;6.72;92.76;99510.53;10171868;28;20059;-80
2024/03/23 15:50:00;;;;;;;2.80;0.93;;;;;;;7.85;83.03;99511.22;10162820;28;21301;-81
2024/03/23 15:55:03;;;;;;;2.65;0.98;;;;;;;7.26;74.79;99488.44;10140097;28;20582;-81
2024/03/23 16:00:06;;;;;;;2.47;1.30;;;;;;;8.07;73.93;99486.19;10156571;28;20104;-80
2024/03/23 16:05:13;;;;;;;4.82;1.30;;;;;;;7.98;70.60;99478.94;10148417;28;20161;-80
2024/03/23 16:10:14;;;;;;;6.70;1.80;;;;;;;7.54;72.21;99456.78;10165612;28;20235;-80
2024/03/23 16:15:15;;;;;;;8.60;2.20;;;;;;;7.59;74.43;99451.91;10157572;28;20051;-80
2024/03/23 16:20:16;;;;;;;4.35;1.45;;;;;;;6.50;75.87;99453.56;10149559;28;20109;-79
2024/03/23 16:25:17;;;;;;;5.75;2.03;;;;;;;6.93;75.47;99443.94;10153209;28;20713;-80
2024/03/23 16:30:18;;;;;;;8.38;1.90;;;;;;;6.72;74.68;99441.16;10153505;28;20197;-80
2024/03/23 16:35:19;;;;;;;5.88;2.22;;;;;;;6.50;75.88;99434.00;10166383;28;20581;-80
2024/03/23 16:40:19;;;;;;;3.30;2.10;;;;;;;6.70;76.59;99435.94;10131811;28;20116;-81
2024/03/23 16:45:20;;;;;;;10.80;1.95;;;;;;;6.03;77.62;99443.91;10158706;28;20048;-81
2024/03/23 16:50:21;;;;;;;10.43;1.35;;;;;;;5.02;79.69;99484.28;10159927;28;20059;-80
2024/03/23 16:55:22;;;;;;;2.40;1.02;;;;;;;4.52;86.71;99478.03;10167383;28;20059;-80
2024/03/23 17:00:23;;;;;;;2.78;1.73;;;;;;;5.08;83.56;99485.66;10147945;28;20048;-80
2024/03/23 17:05:24;;;;;;;4.05;1.40;;;;;;;5.66;80.66;99500.00;10146860;28;20048;-81
2024/03/23 17:10:25;;;;;;;3.22;1.20;;;;;;;5.93;80.49;99497.94;10166957;28;20674;-80
2024/03/23 17:15:26;;;;;;;2.85;1.20;;;;;;;5.43;80.84;99507.91;10154150;28;20063;-80
2024/03/23 17:20:26;;;;;;;5.70;1.67;;;;;;;4.90;83.98;99507.25;10152705;28;20071;-80
2024/03/23 17:25:27;;;;;;;3.13;1.20;;;;;;;5.27;86.82;99497.50;10166396;28;20419;-81
2024/03/23 17:30:28;;;;;;;5.30;1.30;;;;;;;5.04;83.54;99498.31;10119987;28;20078;-80
2024/03/23 17:35:30;;;;;;;9.65;2.40;;;;;;;5.23;86.08;99509.31;10168382;28;20479;-79
2024/03/23 17:40:31;;;;;;;3.25;1.75;;;;;;;4.72;90.49;99513.91;10176949;28;20063;-80
2024/03/23 17:45:31;;;;;;;4.45;1.55;;;;;;;3.66;100.00;99478.63;10158060;28;20075;-80
2024/03/23 17:50:32;;;;;;;4.32;2.13;;;;;;;3.46;100.00;99482.59;10160480;28;20064;-80
2024/03/23 17:55:33;;;;;;;7.45;1.65;;;;;;;3.50;100.00;99486.75;10199676;28;20054;-80
2024/03/23 18:00:34;;;;;;;4.88;1.88;;;;;;;3.47;100.00;99479.84;10182721;28;20048;-79
2024/03/23 18:05:35;;;;;;;6.65;1.80;;;;;;;3.75;98.94;99485.13;10166203;28;20040;-80
2024/03/23 18:10:36;;;;;;;3.20;2.38;;;;;;;3.57;100.00;99485.41;10166056;28;20052;-80
2024/03/23 18:15:36;;;;;;;4.88;2.28;;;;;;;3.82;99.53;99495.25;10173155;28;20052;-80
2024/03/23 18:20:37;;;;;;;6.90;2.22;;;;;;;3.80;97.37;99498.94;10180413;28;20115;-81
2024/03/23 18:25:38;;;;;;;6.15;2.20;;;;;;;4.08;96.43;99498.78;10157684;28;20063;-81
2024/03/23 18:30:39;;;;;;;5.00;1.80;;;;;;;4.17;97.06;99497.31;10166715;28;20048;-80
2024/03/23 18:35:40;;;;;;;7.47;2.35;;;;;;;4.17;97.26;99498.16;10176053;28;20091;-80
2024/03/23 18:40:49;;;;;;;4.65;2.17;;;;;;;4.15;93.99;99499.22;10155056;28;20044;-80
2024/03/23 18:45:51;;;;;;;6.85;2.15;;;;;;;3.85;90.66;99503.00;10167326;28;20044;-81
2024/03/23 18:50:52;;;;;;;;;;;;;;;3.77;87.34;99499.16;10154469;28;20135;-81
2024/03/23 18:55:55;;;;;;;7.80;1.17;;;;;;;3.69;86.06;99486.38;10169955;28;19927;-80
2024/03/23 19:00:57;;;;;;;4.80;1.02;;;;;;;3.44;85.99;99484.50;10152562;28;20047;-80
2024/03/23 19:05:59;;;;;;;;;;;;;;;3.62;85.28;99491.25;10169410;28;20139;-79
2024/03/23 19:11:01;;;;;;;4.83;1.00;;;;;;;3.53;83.79;99483.88;10151373;28;20359;-80
2024/03/23 19:16:04;;;;;;;3.17;1.13;;;;;;;3.53;84.37;99494.50;10155664;28;20115;-80
2024/03/23 19:21:05;;;;;;;5.07;1.92;;;;;;;3.73;83.49;99506.50;10134896;28;20063;-81
2024/03/23 19:26:07;;;;;;;4.73;1.50;;;;;;;3.61;83.45;99494.00;10165023;28;20063;-80
2024/03/23 19:31:08;;;;;;;6.15;1.75;;;;;;;3.64;84.24;99497.31;10166493;28;20161;-80
2024/03/23 19:36:09;;;;;;;3.33;1.10;;;;;;;3.33;85.46;99500.28;10155309;28;20064;-80
2024/03/23 19:41:09;;;;;;;7.00;1.08;;;;;;;3.00;86.13;99518.25;10136837;28;20146;-79
2024/03/23 19:46:10;;;;;;;2.72;0.95;;;;;;;3.17;86.33;99503.06;10203181;28;20499;-78
2024/03/23 19:51:11;;;;;;;4.10;0.98;;;;;;;3.19;85.90;99496.72;10178244;28;20126;-79
2024/03/23 19:56:12;;;;;;;2.85;1.15;;;;;;;3.28;87.41;99504.06;10176596;28;20182;-80
2024/03/23 20:01:14;;;;;;;3.22;1.88;;;;;;;3.54;85.29;99500.66;10151223;28;20043;-81
2024/03/23 20:06:19;;;;;;;2.83;1.08;;;;;;;3.48;84.76;99489.53;10169704;28;20063;-81
2024/03/23 20:11:26;;;;;;;5.80;1.63;;;;;;;3.80;83.41;99485.66;10157355;28;20066;-80
2024/03/23 20:16:27;;;;;;;3.90;1.92;;;;;;;3.64;84.88;99488.50;10166347;28;20075;-80
2024/03/23 20:21:27;;;;;;;6.07;2.05;;;;;;;3.49;85.73;99477.94;10168975;28;20054;-80
2024/03/23 20:26:28;;;;;;;8.18;2.42;;;;;;;3.42;87.46;99481.09;10145645;28;20043;-80
2024/03/23 20:31:29;;;;;;;3.42;2.17;;;;;;;3.21;89.68;99480.69;10158838;28;20190;-79
2024/03/23 20:36:30;;;;;;;5.97;2.53;;;;;;;2.93;91.29;99476.28;10150919;28;20051;-80
2024/03/23 20:41:30;;;;;;;5.20;2.63;;;;;;;3.08;90.97;99474.47;10164515;28;20044;-79
2024/03/23 20:46:31;;;;;;;2.92;1.17;;;;;;;3.11;88.93;99483.09;10165565;28;20051;-80
2024/03/23 20:51:33;;;;;;;3.90;1.35;;;;;;;2.80;92.21;99479.75;10153934;28;20050;-80
2024/03/23 20:56:34;;;;;;;5.00;2.25;;;;;;;2.39;95.35;99463.75;10154539;28;20815;-81
2024/03/23 21:01:35;;;;;;;8.98;2.47;;;;;;;2.90;92.67;99479.16;10171570;28;21181;-80
2024/03/23 21:06:36;;;;;;;6.20;2.50;;;;;;;3.00;91.82;99459.06;10171581;28;20176;-81
2024/03/23 21:11:37;;;;;;;5.05;2.47;;;;;;;2.89;92.14;99465.03;10157930;28;20058;-81
2024/03/23 21:16:38;;;;;;;7.28;3.25;;;;;;;2.74;93.01;99474.84;10153930;28;20426;-81
2024/03/23 21:21:38;;;;;;;5.05;2.85;;;;;;;2.61;93.23;99465.94;10165023;28;20798;-81
2024/03/23 21:26:39;;;;;;;8.70;3.78;;;;;;;3.28;89.49;99460.75;10163742;28;20111;-81
2024/03/23 21:31:40;;;;;;;5.28;3.80;;;;;;;3.30;89.17;99465.97;10140509;28;20158;-80
2024/03/23 21:36:40;;;;;;;7.20;3.92;;;;;;;3.47;88.13;99458.59;10171914;28;20055;-80
2024/03/23 21:41:44;;;;;;;8.18;3.53;;;;;;;3.18;89.78;99465.84;10143029;28;20119;-80
2024/03/23 21:46:45;;;;;;;8.48;4.30;;;;;;;3.58;87.81;99452.56;10182849;28;20048;-81
2024/03/23 21:51:46;;;;;;;7.82;3.53;;;;;;;3.77;85.56;99438.06;10206994;28;20043;-80
2024/03/23 21:56:46;;;;;;;7.22;3.13;;;;;;;3.46;87.88;99430.34;10205073;28;20047;-80
2024/03/23 22:01:47;;;;;;;9.52;3.78;;;;;;;3.41;87.73;99435.13;10188988;28;20111;-81
2024/03/23 22:06:49;;;;;;;8.05;3.70;;;;;;;3.44;87.38;99432.25;10177031;28;21152;-80
2024/03/23 22:11:49;;;;;;;7.03;3.47;;;;;;;3.16;88.14;99433.22;10164685;28;20047;-80
2024/03/23 22:16:50;;;;;;;5.90;3.25;;;;;;;3.41;86.50;99418.34;10160957;28;20058;-81
2024/03/23 22:21:51;;;;;;;10.27;3.42;;;;;;;3.07;88.36;99415.22;10157466;28;20281;-81
2024/03/23 22:26:52;;;;;;;10.15;4.32;;;;;;;3.48;86.47;99396.59;10167579;28;20112;-79
2024/03/23 22:31:52;;;;;;;7.30;4.72;;;;;;;3.22;87.32;99408.09;10153042;28;20070;-81
2024/03/23 22:36:53;;;;;;;5.63;3.90;;;;;;;3.42;86.74;99407.59;10161065;28;20044;-80
2024/03/23 22:41:54;;;;;;;8.20;4.90;;;;;;;3.57;89.44;99388.97;10166122;28;20807;-79
2024/03/23 22:46:55;;;;;;;15.40;5.47;;;;;;;3.35;92.02;99376.28;10158502;28;20059;-79
2024/03/23 22:51:56;;;;;;;9.77;5.60;;;;;;;3.58;91.19;99372.91;10162803;28;20074;-79
2024/03/23 22:56:57;;;;;;;9.15;4.78;;;;;;;3.23;91.23;99373.47;10163488;28;20048;-79
2024/03/23 23:01:58;;;;;;;11.95;6.30;;;;;;;3.68;88.31;99362.50;10163504;28;20114;-80
2024/03/23 23:06:59;;;;;;;14.77;7.25;;;;;;;3.71;87.45;99368.47;10144316;28;20056;-80
2024/03/23 23:12:00;;;;;;;12.70;6.72;;;;;;;3.52;88.92;99359.22;10153332;28;20052;-79
2024/03/23 23:17:00;;;;;;;14.90;7.32;;;;;;;3.42;89.94;99357.16;10169711;28;20055;-81
2024/03/23 23:22:01;;;;;;;9.60;6.68;;;;;;;3.27;91.02;99350.25;10133197;28;20512;-79